createdAt,value
2022-10-18T00:00:07.454Z,4.80
2022-10-18T00:02:34.508Z,4.90
2022-10-18T00:05:01.323Z,5.40
2022-10-18T00:07:28.221Z,5.00
2022-10-18T00:09:55.177Z,4.70
2022-10-18T00:12:21.931Z,4.70
2022-10-18T00:14:51.061Z,4.80
2022-10-18T00:17:18.553Z,4.50
2022-10-18T00:19:46.748Z,4.30
2022-10-18T00:22:13.486Z,5.30
2022-10-18T00:24:40.226Z,4.80
2022-10-18T00:27:06.960Z,4.10
2022-10-18T00:29:33.717Z,4.60
2022-10-18T00:32:00.522Z,4.50
2022-10-18T00:34:27.318Z,5.00
2022-10-18T00:36:55.246Z,4.70
2022-10-18T00:39:22.656Z,5.00
2022-10-18T00:41:50.462Z,5.00
2022-10-18T00:44:17.138Z,6.30
2022-10-18T00:46:49.464Z,6.20
2022-10-18T00:49:19.574Z,6.70
2022-10-18T00:51:51.479Z,6.40
2022-10-18T00:54:20.924Z,6.00
2022-10-18T00:56:47.787Z,5.70
2022-10-18T00:59:17.011Z,6.20
2022-10-18T01:01:44.776Z,6.30
2022-10-18T01:04:13.729Z,5.90
2022-10-18T01:06:53.876Z,6.00
2022-10-18T01:09:39.001Z,5.50
2022-10-18T01:12:29.809Z,6.60
2022-10-18T01:15:11.903Z,5.50
2022-10-18T01:17:58.093Z,5.70
2022-10-18T01:20:54.543Z,5.20
2022-10-18T01:23:39.870Z,4.50
2022-10-18T01:26:39.975Z,4.70
2022-10-18T01:29:44.464Z,4.60
2022-10-18T01:32:17.761Z,4.60
2022-10-18T01:34:47.794Z,4.90
2022-10-18T01:37:18.018Z,4.40
2022-10-18T01:39:48.191Z,4.20
2022-10-18T01:42:19.939Z,4.10
2022-10-18T01:44:48.567Z,4.40
2022-10-18T01:47:17.012Z,4.40
2022-10-18T01:49:43.845Z,4.40
2022-10-18T01:52:15.265Z,5.10
2022-10-18T07:02:01.472Z,10.20
2022-10-18T07:04:29.893Z,10.50
2022-10-18T07:06:56.805Z,9.90
2022-10-18T07:09:23.607Z,11.20
2022-10-18T07:11:50.408Z,10.50
2022-10-18T07:14:17.093Z,10.50
2022-10-18T07:16:43.852Z,10.20
2022-10-18T07:19:10.603Z,10.60
2022-10-18T07:21:37.377Z,11.20
2022-10-18T07:24:04.238Z,11.90
2022-10-18T07:26:33.401Z,10.60
2022-10-18T07:29:06.310Z,11.60
2022-10-18T07:31:34.385Z,13.00
2022-10-18T07:34:04.053Z,12.70
2022-10-18T07:36:30.816Z,11.80
2022-10-18T07:38:57.669Z,11.00
2022-10-18T07:41:24.424Z,10.30
2022-10-18T07:43:52.781Z,10.90
2022-10-18T07:46:21.822Z,11.30
2022-10-18T07:48:49.399Z,11.10
2022-10-18T07:51:16.933Z,11.40
2022-10-18T07:53:43.984Z,11.60
2022-10-18T07:56:18.465Z,11.60
2022-10-18T07:58:46.475Z,12.30
2022-10-18T08:01:14.663Z,11.80
2022-10-18T08:03:43.232Z,11.20
2022-10-18T08:06:12.578Z,10.90
2022-10-18T08:08:40.692Z,12.00
2022-10-18T08:11:20.013Z,11.40
2022-10-18T08:13:47.856Z,11.70
2022-10-18T08:16:18.329Z,11.70
2022-10-18T08:18:45.429Z,11.10
2022-10-18T08:21:14.139Z,11.20
2022-10-18T08:23:41.299Z,10.90
2022-10-18T08:26:13.989Z,10.00
2022-10-18T08:28:46.061Z,9.90
2022-10-18T08:31:20.943Z,9.60
2022-10-18T08:33:47.824Z,9.70
2022-10-18T08:36:16.665Z,9.50
2022-10-18T08:38:44.114Z,9.00
2022-10-18T08:41:30.482Z,8.00
2022-10-18T08:44:18.420Z,8.00
2022-10-18T08:46:52.081Z,8.50
2022-10-18T08:49:41.844Z,9.70
2022-10-18T08:52:26.588Z,8.90
2022-10-18T08:55:00.975Z,9.40
2022-10-18T08:57:28.235Z,7.90
2022-10-18T08:59:54.941Z,8.80
2022-10-18T09:02:31.277Z,8.00
2022-10-18T09:05:20.643Z,8.20
2022-10-18T09:08:18.513Z,7.60
2022-10-18T09:10:56.229Z,6.70
2022-10-18T09:13:32.327Z,6.90
2022-10-18T09:16:01.623Z,7.80
2022-10-18T09:18:53.135Z,6.80
2022-10-18T09:21:25.439Z,7.30
2022-10-18T09:24:13.517Z,6.60
2022-10-18T09:26:47.381Z,6.90
2022-10-18T09:29:38.164Z,7.40
2022-10-18T09:32:31.830Z,7.50
2022-10-18T09:35:26.153Z,7.50
2022-10-18T09:38:03.981Z,7.50
2022-10-18T09:40:36.517Z,8.00
2022-10-18T09:43:23.963Z,8.30
2022-10-18T09:45:54.753Z,7.40
2022-10-18T09:48:27.999Z,8.00
2022-10-18T09:51:01.124Z,7.20
2022-10-18T09:53:45.070Z,7.00
2022-10-18T09:56:28.201Z,7.70
2022-10-18T09:58:54.881Z,6.70
2022-10-18T10:01:25.647Z,7.00
2022-10-18T10:03:53.112Z,7.50
2022-10-18T10:06:34.886Z,7.00
2022-10-18T10:09:08.258Z,6.90
2022-10-18T10:11:45.546Z,6.50
2022-10-18T10:14:19.661Z,6.70
2022-10-18T10:17:04.009Z,7.10
2022-10-18T10:19:38.102Z,7.60
2022-10-18T10:22:13.516Z,9.60
2022-10-18T10:24:50.957Z,9.60
2022-10-18T10:27:29.842Z,8.10
2022-10-18T10:30:18.310Z,8.10
2022-10-18T10:32:48.016Z,10.10
2022-10-18T10:35:53.221Z,8.40
2022-10-18T10:38:29.222Z,8.00
2022-10-18T10:40:56.438Z,8.60
2022-10-18T10:43:38.237Z,10.10
2022-10-18T10:46:06.140Z,9.40
2022-10-18T10:48:39.509Z,10.30
2022-10-18T10:51:09.081Z,8.80
2022-10-18T10:53:38.171Z,9.10
2022-10-18T10:56:07.023Z,8.60
2022-10-18T10:58:41.636Z,8.80
2022-10-18T11:01:19.279Z,10.10
2022-10-18T11:03:48.827Z,8.90
2022-10-18T11:06:37.212Z,9.60
2022-10-18T11:09:12.965Z,10.20
2022-10-18T11:11:43.653Z,11.00
2022-10-18T11:14:26.646Z,11.60
2022-10-18T11:17:12.987Z,9.90
2022-10-18T11:20:02.455Z,9.90
2022-10-18T11:22:36.619Z,9.10
2022-10-18T11:25:05.284Z,8.80
2022-10-18T11:28:04.439Z,9.50
2022-10-18T11:30:53.682Z,9.40
2022-10-18T11:34:07.739Z,10.30
2022-10-18T11:36:54.561Z,9.20
2022-10-18T11:40:09.164Z,8.50
2022-10-18T11:42:52.373Z,8.80
2022-10-18T11:45:48.417Z,8.70
2022-10-18T11:48:42.708Z,8.00
2022-10-18T11:51:29.768Z,6.80
2022-10-18T11:54:35.495Z,6.80
2022-10-18T11:57:30.661Z,7.40
2022-10-18T12:00:14.235Z,8.10
2022-10-18T12:02:43.898Z,7.80
2022-10-18T12:05:23.200Z,7.30
2022-10-18T12:07:55.811Z,8.60
2022-10-18T12:10:32.810Z,8.40
2022-10-18T12:13:17.453Z,7.40
2022-10-18T12:15:45.733Z,8.80
2022-10-18T12:18:20.628Z,8.90
2022-10-18T12:20:54.886Z,9.10
2022-10-18T12:23:53.554Z,8.60
2022-10-18T12:26:21.540Z,9.30
2022-10-18T12:28:59.725Z,8.60
2022-10-18T12:31:39.306Z,8.40
2022-10-18T12:34:21.489Z,8.50
2022-10-18T12:37:20.547Z,9.50
2022-10-18T12:40:10.175Z,8.50
2022-10-18T12:42:45.484Z,8.50
2022-10-18T12:45:33.663Z,9.00
2022-10-18T12:48:08.048Z,8.60
2022-10-18T12:50:43.968Z,8.70
2022-10-18T12:53:10.592Z,10.40
2022-10-18T12:58:16.284Z,9.90
2022-10-18T13:00:42.941Z,8.80
2022-10-18T13:03:09.988Z,8.50
2022-10-18T13:05:55.057Z,10.20
2022-10-18T13:08:28.874Z,9.80
2022-10-18T13:11:01.421Z,9.40
2022-10-18T13:13:52.527Z,8.20
2022-10-18T13:16:31.712Z,5.80
2022-10-18T13:19:37.687Z,5.30
2022-10-18T13:22:31.936Z,5.60
2022-10-18T13:25:28.724Z,5.00
2022-10-18T13:28:05.067Z,4.70
2022-10-18T13:30:44.671Z,4.90
2022-10-18T13:33:30.453Z,4.50
2022-10-18T13:36:22.822Z,5.40
2022-10-18T13:38:57.941Z,4.90
2022-10-18T13:41:27.553Z,5.60
2022-10-18T13:44:12.015Z,5.10
2022-10-18T13:46:38.669Z,5.50
2022-10-18T13:49:17.425Z,5.70
2022-10-18T13:51:56.123Z,5.60
2022-10-18T13:54:41.355Z,5.10
2022-10-18T13:57:26.377Z,5.60
2022-10-18T14:00:23.058Z,5.40
2022-10-18T14:03:26.615Z,5.40
2022-10-18T14:06:12.034Z,5.00
2022-10-18T14:09:25.499Z,4.90
2022-10-18T14:12:20.860Z,5.50
2022-10-18T14:14:56.457Z,5.30
2022-10-18T14:17:54.138Z,4.80
2022-10-18T14:20:49.099Z,5.30
2022-10-18T14:23:21.501Z,5.40
2022-10-18T14:25:48.834Z,7.30
2022-10-18T14:28:27.347Z,6.70
2022-10-18T14:31:20.845Z,5.80
2022-10-18T14:33:57.871Z,5.90
2022-10-18T14:36:29.937Z,6.00
2022-10-18T14:38:56.595Z,6.40
2022-10-18T14:41:35.169Z,6.10
2022-10-18T14:44:22.067Z,6.00
2022-10-18T14:46:59.240Z,6.30
2022-10-18T14:49:26.685Z,6.20
2022-10-18T14:51:56.913Z,6.30
2022-10-18T14:54:31.650Z,6.00
2022-10-18T14:57:00.559Z,6.30
2022-10-18T14:59:31.048Z,6.10
2022-10-18T15:02:17.737Z,6.10
2022-10-18T15:04:46.550Z,7.30
2022-10-18T15:07:16.703Z,10.90
2022-10-18T15:09:44.053Z,13.50
2022-10-18T15:12:14.280Z,14.40
2022-10-18T15:14:42.733Z,11.70
2022-10-18T15:17:27.754Z,11.00
2022-10-18T15:20:05.002Z,11.10
2022-10-18T15:22:34.055Z,10.50
2022-10-18T15:25:16.142Z,10.90
2022-10-18T15:27:58.309Z,11.80
2022-10-18T15:30:43.208Z,14.70
2022-10-18T15:33:23.271Z,14.60
2022-10-18T15:35:52.304Z,13.50
2022-10-18T15:38:26.050Z,12.40
2022-10-18T15:40:53.454Z,14.70
2022-10-18T15:43:23.238Z,15.90
2022-10-18T15:46:01.598Z,14.40
2022-10-18T15:48:40.723Z,14.40
2022-10-18T15:51:12.991Z,14.10
2022-10-18T15:53:42.806Z,14.40
2022-10-18T15:56:31.823Z,16.10
2022-10-18T15:59:03.616Z,16.80
2022-10-18T16:01:35.574Z,17.70
2022-10-18T16:04:08.663Z,17.20
2022-10-18T16:06:37.702Z,20.10
2022-10-18T16:09:05.201Z,23.00
2022-10-18T16:11:31.858Z,32.70
2022-10-18T16:14:00.545Z,35.50
2022-10-18T16:16:28.999Z,34.10
2022-10-18T16:18:56.610Z,32.20
2022-10-18T16:21:35.257Z,35.80
2022-10-18T16:24:02.285Z,40.50
2022-10-18T16:26:29.333Z,49.50
2022-10-18T16:28:57.636Z,68.50
2022-10-18T16:31:27.237Z,80.40
2022-10-18T16:33:55.284Z,81.10
2022-10-18T16:36:25.085Z,67.10
2022-10-18T16:38:52.395Z,48.60
2022-10-18T16:41:19.128Z,40.30
2022-10-18T16:43:47.618Z,33.00
2022-10-18T16:46:29.566Z,29.70
2022-10-18T16:48:56.728Z,25.90
2022-10-18T16:51:24.465Z,27.10
2022-10-18T16:53:53.489Z,26.40
2022-10-18T16:56:21.467Z,29.10
2022-10-18T16:58:49.453Z,28.20
2022-10-18T17:01:19.724Z,27.30
2022-10-18T17:03:47.839Z,27.10
2022-10-18T17:06:33.428Z,26.30
2022-10-18T17:09:00.945Z,26.50
2022-10-18T17:11:28.579Z,28.60
2022-10-18T17:13:56.028Z,28.50
2022-10-18T17:19:04.202Z,24.70
2022-10-18T17:21:32.184Z,24.10
2022-10-18T17:24:01.626Z,21.30
2022-10-18T17:26:29.907Z,20.60
2022-10-18T17:29:04.234Z,20.10
2022-10-18T17:31:32.839Z,19.40
2022-10-18T17:34:03.860Z,19.10
2022-10-18T17:36:32.613Z,19.20
2022-10-18T17:39:00.012Z,17.20
2022-10-18T17:41:27.896Z,16.10
2022-10-18T17:43:55.287Z,17.40
2022-10-18T17:46:24.250Z,18.30
2022-10-18T17:48:51.331Z,20.50
2022-10-18T17:51:19.233Z,19.00
2022-10-18T17:53:47.223Z,18.00
2022-10-18T17:56:15.234Z,16.30
2022-10-18T17:58:46.233Z,14.60
2022-10-18T18:01:15.030Z,15.30
2022-10-18T18:03:42.261Z,16.20
2022-10-18T18:06:21.681Z,15.90
2022-10-18T18:08:50.129Z,15.00
2022-10-18T18:11:18.427Z,15.40
2022-10-18T18:13:45.901Z,14.80
2022-10-18T18:16:19.505Z,15.00
2022-10-18T18:18:47.678Z,17.30
2022-10-18T18:21:14.899Z,16.90
2022-10-18T18:23:42.218Z,18.60
2022-10-18T18:26:09.240Z,19.90
2022-10-18T18:28:36.810Z,17.80
2022-10-18T18:31:08.828Z,16.00
2022-10-18T18:33:37.531Z,13.80
2022-10-18T18:36:07.357Z,13.00
2022-10-18T18:38:37.530Z,16.20
2022-10-18T18:41:08.014Z,17.70
2022-10-18T18:43:36.098Z,19.60
2022-10-18T18:46:04.918Z,20.40
2022-10-18T18:48:34.647Z,20.40
2022-10-18T18:51:03.865Z,19.90
2022-10-18T18:53:31.861Z,19.30
2022-10-18T18:56:07.872Z,23.40
2022-10-18T18:58:37.206Z,20.60
2022-10-18T19:01:13.023Z,20.90
2022-10-18T19:03:42.218Z,24.40
2022-10-18T19:06:12.301Z,23.90
2022-10-18T19:08:40.917Z,25.40
2022-10-18T19:11:09.708Z,27.70
2022-10-18T19:13:37.343Z,28.00
2022-10-18T19:16:40.495Z,25.40
2022-10-18T19:19:19.392Z,19.90
2022-10-18T19:21:51.781Z,20.80
2022-10-18T19:24:21.112Z,25.20
2022-10-18T19:26:57.036Z,27.60
2022-10-18T19:29:30.172Z,32.20
2022-10-18T19:32:00.138Z,33.10
2022-10-18T19:34:29.210Z,33.70
2022-10-18T19:36:56.937Z,29.80
2022-10-18T19:39:29.901Z,33.40
2022-10-18T19:42:00.369Z,33.00
2022-10-18T19:44:32.349Z,35.90
2022-10-18T19:46:59.769Z,51.00
2022-10-18T19:49:29.134Z,59.70
2022-10-18T19:51:56.996Z,62.80
2022-10-18T19:54:25.101Z,58.40
2022-10-18T19:56:52.422Z,53.40
2022-10-18T19:59:19.764Z,45.30
2022-10-18T20:01:46.868Z,30.30
2022-10-18T20:04:14.664Z,25.10
2022-10-18T20:06:42.712Z,25.20
2022-10-18T20:09:13.485Z,20.20
2022-10-18T20:11:43.067Z,18.90
2022-10-18T20:14:11.261Z,17.80
2022-10-18T20:16:38.186Z,14.80
2022-10-18T20:19:08.415Z,12.90
2022-10-18T20:21:36.488Z,12.20
2022-10-18T20:24:04.793Z,11.90
2022-10-18T20:26:32.292Z,11.70
2022-10-18T20:29:00.006Z,11.10
2022-10-18T20:31:31.914Z,12.40
2022-10-18T20:34:03.887Z,13.90
2022-10-18T20:36:32.476Z,13.60
2022-10-18T20:38:59.692Z,18.60
2022-10-18T20:41:32.064Z,18.80
2022-10-18T20:44:01.716Z,18.60
2022-10-18T20:46:34.055Z,16.70
2022-10-18T20:49:00.960Z,16.90
2022-10-18T20:51:28.037Z,16.70
2022-10-18T20:53:55.051Z,14.60
2022-10-18T20:56:26.762Z,15.30
2022-10-18T20:58:57.644Z,14.30
2022-10-18T21:01:30.642Z,13.30
2022-10-18T21:04:00.168Z,13.40
2022-10-18T21:06:28.351Z,14.20
2022-10-18T21:09:00.923Z,15.10
2022-10-18T21:11:29.080Z,16.70
2022-10-18T21:14:00.262Z,16.40
2022-10-18T21:16:27.714Z,18.30
